createdAt,value
2022-07-28T00:01:10.763Z,1.00
2022-07-28T00:03:37.694Z,1.27
2022-07-28T00:06:04.663Z,1.40
2022-07-28T00:08:31.827Z,1.65
2022-07-28T00:10:58.829Z,1.10
2022-07-28T00:13:25.772Z,1.20
2022-07-28T00:15:52.786Z,1.75
2022-07-28T00:18:19.783Z,1.23
2022-07-28T00:20:46.759Z,1.42
2022-07-28T00:23:13.760Z,1.60
2022-07-28T00:25:40.757Z,1.40
2022-07-28T00:28:07.699Z,1.30
2022-07-28T00:30:34.772Z,1.30
2022-07-28T00:33:01.960Z,1.30
2022-07-28T00:35:31.965Z,1.33
2022-07-28T00:38:01.022Z,1.40
2022-07-28T00:40:48.452Z,1.20
2022-07-28T00:43:15.911Z,1.60
2022-07-28T00:45:43.315Z,1.20
2022-07-28T00:48:10.402Z,1.25
2022-07-28T00:50:40.450Z,1.52
2022-07-28T00:53:08.860Z,1.77
2022-07-28T00:56:06.332Z,1.20
2022-07-28T00:58:27.789Z,1.30
2022-07-28T01:00:55.909Z,1.27
2022-07-28T01:03:24.726Z,1.38
2022-07-28T01:06:31.683Z,1.30
2022-07-28T01:09:24.013Z,1.20
2022-07-28T01:12:19.737Z,1.50
2022-07-28T01:15:08.133Z,1.20
2022-07-28T01:18:02.521Z,1.15
2022-07-28T01:20:40.120Z,1.15
2022-07-28T01:23:32.930Z,1.23
2022-07-28T01:26:51.355Z,1.50
2022-07-28T01:30:11.542Z,1.75
2022-07-28T01:32:52.264Z,1.30
2022-07-28T01:35:28.834Z,1.40
2022-07-28T01:38:02.113Z,1.20
2022-07-28T01:40:34.101Z,1.00
2022-07-28T01:43:08.412Z,1.10
2022-07-28T01:45:38.312Z,1.20
2022-07-28T01:48:06.962Z,1.40
2022-07-28T01:50:35.077Z,1.45
2022-07-28T01:53:03.045Z,1.35
2022-07-28T01:55:30.984Z,1.10
2022-07-28T01:57:59.328Z,1.50
2022-07-28T02:00:28.035Z,1.23
2022-07-28T02:02:57.417Z,1.30
2022-07-28T02:05:26.024Z,1.43
2022-07-28T02:07:55.516Z,1.67
2022-07-28T02:10:23.712Z,1.50
2022-07-28T02:12:53.006Z,1.33
2022-07-28T02:15:22.234Z,1.30
2022-07-28T02:17:51.388Z,1.07
2022-07-28T02:20:19.776Z,1.20
2022-07-28T02:22:51.704Z,1.25
2022-07-28T02:25:20.963Z,1.58
2022-07-28T02:27:58.373Z,1.30
2022-07-28T02:30:37.436Z,1.30
2022-07-28T02:33:13.126Z,1.40
2022-07-28T02:36:00.772Z,1.27
2022-07-28T02:38:39.733Z,1.40
2022-07-28T02:41:27.292Z,1.77
2022-07-28T02:43:59.659Z,1.35
2022-07-28T02:46:38.288Z,1.30
2022-07-28T02:49:30.462Z,1.55
2022-07-28T02:52:00.198Z,1.58
2022-07-28T02:54:29.931Z,1.50
2022-07-28T02:57:00.382Z,1.50
2022-07-28T02:59:29.188Z,1.70
2022-07-28T03:01:57.466Z,2.10
2022-07-28T03:04:44.095Z,1.35
2022-07-28T03:07:11.390Z,1.23
2022-07-28T03:09:45.757Z,1.63
2022-07-28T03:12:13.389Z,1.40
2022-07-28T03:14:41.618Z,1.90
2022-07-28T03:17:09.215Z,1.58
2022-07-28T03:19:36.893Z,1.70
2022-07-28T03:22:04.801Z,1.45
2022-07-28T03:24:37.513Z,1.42
2022-07-28T03:27:31.051Z,1.60
2022-07-28T03:30:08.522Z,1.70
2022-07-28T03:32:40.967Z,1.45
2022-07-28T03:35:09.008Z,1.73
2022-07-28T03:38:11.466Z,1.40
2022-07-28T03:40:40.005Z,1.20
2022-07-28T03:43:18.518Z,1.35
2022-07-28T03:45:47.794Z,1.35
2022-07-28T03:48:15.157Z,1.70
2022-07-28T03:50:42.574Z,1.40
2022-07-28T03:53:36.106Z,1.70
2022-07-28T03:56:03.380Z,1.60
2022-07-28T03:58:31.095Z,1.52
2022-07-28T04:00:58.709Z,1.52
2022-07-28T04:03:36.465Z,1.65
2022-07-28T04:06:15.517Z,1.63
2022-07-28T04:08:44.553Z,1.58
2022-07-28T04:11:11.615Z,1.30
2022-07-28T04:13:38.703Z,1.60
2022-07-28T04:16:06.983Z,1.63
2022-07-28T04:18:35.081Z,1.48
2022-07-28T04:21:02.390Z,1.65
2022-07-28T04:23:29.422Z,1.30
2022-07-28T04:25:56.477Z,2.00
2022-07-28T04:28:24.254Z,1.50
2022-07-28T04:30:51.356Z,1.50
2022-07-28T04:33:19.448Z,1.65
2022-07-28T04:35:47.357Z,1.40
2022-07-28T04:38:15.018Z,2.25
2022-07-28T04:40:42.465Z,1.52
2022-07-28T04:43:10.312Z,2.28
2022-07-28T04:45:37.375Z,1.70
2022-07-28T04:48:05.468Z,1.50
2022-07-28T04:50:32.897Z,1.83
2022-07-28T04:53:00.224Z,1.98
2022-07-28T04:55:27.353Z,1.73
2022-07-28T04:57:54.326Z,1.67
2022-07-28T05:00:22.955Z,1.48
2022-07-28T05:02:51.266Z,1.38
2022-07-28T05:05:18.486Z,1.85
2022-07-28T05:07:45.490Z,1.60
2022-07-28T05:10:13.020Z,1.95
2022-07-28T05:12:40.264Z,1.60
2022-07-28T05:15:09.470Z,1.50
2022-07-28T05:17:37.078Z,2.08
2022-07-28T05:20:06.142Z,1.42
2022-07-28T05:22:48.034Z,1.98
2022-07-28T05:25:21.984Z,1.40
2022-07-28T05:27:49.378Z,1.40
2022-07-28T05:30:18.317Z,1.92
2022-07-28T05:32:45.962Z,1.90
2022-07-28T05:35:13.575Z,2.17
2022-07-28T05:37:41.052Z,1.58
2022-07-28T05:40:15.031Z,2.25
2022-07-28T05:42:43.393Z,1.73
2022-07-28T05:45:15.678Z,1.70
2022-07-28T05:47:49.291Z,1.80
2022-07-28T05:50:18.126Z,1.70
2022-07-28T05:52:49.029Z,1.80
2022-07-28T05:55:16.348Z,1.65
2022-07-28T05:57:43.972Z,1.33
2022-07-28T06:00:23.070Z,1.42
2022-07-28T06:02:51.219Z,1.42
2022-07-28T06:05:20.929Z,1.83
2022-07-28T06:07:50.243Z,1.90
2022-07-28T06:10:20.326Z,1.53
2022-07-28T06:12:51.054Z,1.30
2022-07-28T06:15:25.689Z,2.20
2022-07-28T06:17:55.414Z,1.38
2022-07-28T06:20:24.388Z,1.60
2022-07-28T06:22:55.479Z,1.73
2022-07-28T06:25:28.466Z,1.80
2022-07-28T06:28:02.724Z,1.75
2022-07-28T06:30:31.776Z,1.67
2022-07-28T06:32:58.972Z,1.65
2022-07-28T06:35:26.447Z,2.05
2022-07-28T06:37:55.070Z,1.88
2022-07-28T06:40:22.402Z,1.35
2022-07-28T06:42:50.059Z,1.75
2022-07-28T06:45:19.600Z,1.73
2022-07-28T06:47:49.772Z,1.48
2022-07-28T06:50:24.888Z,1.95
2022-07-28T06:52:58.913Z,2.15
2022-07-28T06:55:34.377Z,1.73
2022-07-28T06:58:03.232Z,1.92
2022-07-28T07:00:30.668Z,1.92
2022-07-28T07:02:57.800Z,1.85
2022-07-28T07:05:25.850Z,1.67
2022-07-28T07:07:52.855Z,2.10
2022-07-28T07:10:20.092Z,2.13
2022-07-28T07:12:47.229Z,2.28
2022-07-28T07:15:14.275Z,1.60
2022-07-28T07:17:42.104Z,2.10
2022-07-28T07:20:10.705Z,2.28
2022-07-28T07:22:45.997Z,2.03
2022-07-28T07:25:16.613Z,2.38
2022-07-28T07:27:44.313Z,2.22
2022-07-28T07:30:13.211Z,1.80
2022-07-28T07:32:42.001Z,2.03
2022-07-28T07:35:09.465Z,1.90
2022-07-28T07:37:36.488Z,2.20
2022-07-28T07:40:06.282Z,1.80
2022-07-28T07:42:33.681Z,2.22
2022-07-28T07:45:01.009Z,2.17
2022-07-28T07:47:28.286Z,1.80
2022-07-28T07:49:55.286Z,2.05
2022-07-28T07:52:22.286Z,2.63
2022-07-28T07:54:49.386Z,3.00
2022-07-28T07:57:16.411Z,2.00
2022-07-28T07:59:43.557Z,2.00
2022-07-28T08:02:10.573Z,2.33
2022-07-28T08:04:38.542Z,2.17
2022-07-28T08:07:06.719Z,2.03
2022-07-28T08:09:34.422Z,2.50
2022-07-28T08:12:01.787Z,2.47
2022-07-28T08:14:28.967Z,2.70
2022-07-28T08:16:56.732Z,2.67
2022-07-28T08:19:23.982Z,2.55
2022-07-28T08:21:51.515Z,2.33
2022-07-28T08:24:32.357Z,2.85
2022-07-28T08:27:00.481Z,2.38
2022-07-28T08:29:27.616Z,3.78
2022-07-28T08:31:54.685Z,3.65
2022-07-28T08:34:32.338Z,2.30
2022-07-28T08:37:02.696Z,3.40
2022-07-28T08:39:32.066Z,2.93
2022-07-28T08:42:25.497Z,2.95
2022-07-28T08:45:01.375Z,3.25
2022-07-28T08:47:40.413Z,2.97
2022-07-28T08:50:14.022Z,2.78
2022-07-28T08:52:45.505Z,2.90
2022-07-28T08:55:19.181Z,2.92
2022-07-28T08:57:47.007Z,2.78
2022-07-28T09:00:14.701Z,3.53
2022-07-28T09:02:46.550Z,3.00
2022-07-28T09:05:23.670Z,3.05
2022-07-28T09:07:55.493Z,3.15
2022-07-28T09:10:23.470Z,2.92
2022-07-28T09:12:50.847Z,2.83
2022-07-28T09:15:18.012Z,2.90
2022-07-28T09:17:45.602Z,2.90
2022-07-28T09:20:13.776Z,3.45
2022-07-28T09:23:04.696Z,3.47
2022-07-28T09:25:33.153Z,3.00
2022-07-28T09:28:20.262Z,2.95
2022-07-28T09:30:53.969Z,2.90
2022-07-28T09:33:42.029Z,2.85
2022-07-28T09:36:16.203Z,3.17
2022-07-28T09:38:43.548Z,2.83
2022-07-28T09:41:11.260Z,3.15
2022-07-28T09:43:44.387Z,3.28
2022-07-28T09:46:19.978Z,3.00
2022-07-28T09:48:55.586Z,2.85
2022-07-28T09:51:35.831Z,2.92
2022-07-28T09:54:19.934Z,2.88
2022-07-28T09:56:47.195Z,3.15
2022-07-28T09:59:16.223Z,3.15
2022-07-28T10:02:01.650Z,2.87
2022-07-28T10:04:41.748Z,2.80
2022-07-28T10:07:15.777Z,3.13
2022-07-28T10:09:43.649Z,2.90
2022-07-28T10:12:24.338Z,2.80
2022-07-28T10:14:55.423Z,2.80
2022-07-28T10:17:34.353Z,2.55
2022-07-28T10:20:05.980Z,2.70
2022-07-28T10:22:42.777Z,2.97
2022-07-28T10:25:12.692Z,2.90
2022-07-28T10:27:44.920Z,3.45
2022-07-28T10:30:13.276Z,2.55
2022-07-28T10:32:44.511Z,2.28
2022-07-28T10:35:15.353Z,2.63
2022-07-28T10:38:12.809Z,3.67
2022-07-28T10:40:46.876Z,3.22
2022-07-28T10:43:14.923Z,3.13
2022-07-28T10:46:04.465Z,2.60
2022-07-28T10:48:31.283Z,3.08
2022-07-28T10:50:59.441Z,2.55
2022-07-28T10:53:46.789Z,2.92
2022-07-28T10:56:38.686Z,3.20
2022-07-28T10:59:37.975Z,2.97
2022-07-28T11:02:05.311Z,2.63
2022-07-28T11:04:41.495Z,2.50
2022-07-28T11:07:17.480Z,3.30
2022-07-28T11:09:47.531Z,2.85
2022-07-28T11:12:15.479Z,2.50
2022-07-28T11:14:43.736Z,2.70
2022-07-28T11:17:13.522Z,2.83
2022-07-28T11:19:55.679Z,2.60
2022-07-28T11:22:34.870Z,2.90
2022-07-28T11:25:19.715Z,3.10
2022-07-28T11:27:51.488Z,2.92
2022-07-28T11:30:19.174Z,2.95
2022-07-28T11:32:53.398Z,3.00
2022-07-28T11:35:51.966Z,2.45
2022-07-28T11:38:19.596Z,2.50
2022-07-28T11:40:57.756Z,2.67
2022-07-28T11:43:35.526Z,2.60
2022-07-28T11:46:10.275Z,2.40
2022-07-28T11:48:41.005Z,3.20
2022-07-28T11:51:10.234Z,2.20
2022-07-28T11:53:54.758Z,2.63
2022-07-28T11:56:32.303Z,2.42
2022-07-28T11:59:07.767Z,2.85
2022-07-28T12:01:36.885Z,2.60
2022-07-28T12:04:12.013Z,2.85
2022-07-28T12:06:42.990Z,2.58
2022-07-28T12:09:13.397Z,2.63
2022-07-28T12:11:42.295Z,2.55
2022-07-28T12:14:13.246Z,2.97
2022-07-28T12:16:43.679Z,3.10
2022-07-28T12:19:15.264Z,2.67
2022-07-28T12:21:47.665Z,2.55
2022-07-28T12:24:44.673Z,2.35
2022-07-28T12:27:13.634Z,2.83
2022-07-28T12:29:42.679Z,2.45
2022-07-28T12:32:10.309Z,2.90
2022-07-28T12:34:40.369Z,3.10
2022-07-28T12:37:09.940Z,2.95
2022-07-28T12:39:39.737Z,2.72
2022-07-28T12:44:41.919Z,2.97
2022-07-28T12:47:12.463Z,2.53
2022-07-28T12:49:44.069Z,2.40
2022-07-28T12:52:24.921Z,2.60
2022-07-28T12:54:55.578Z,2.78
2022-07-28T12:57:50.431Z,3.05
2022-07-28T13:00:22.933Z,2.53
2022-07-28T13:02:53.315Z,2.88
2022-07-28T13:05:54.771Z,2.72
2022-07-28T13:08:24.512Z,2.58
2022-07-28T13:13:24.778Z,2.47
2022-07-28T13:16:11.930Z,3.10
2022-07-28T13:18:59.367Z,2.30
2022-07-28T13:21:59.575Z,2.50
2022-07-28T13:24:30.705Z,2.92
2022-07-28T13:26:59.411Z,2.70
2022-07-28T13:29:26.696Z,2.27
2022-07-28T13:31:56.718Z,2.60
2022-07-28T13:34:23.865Z,2.83
2022-07-28T13:36:52.307Z,2.70
2022-07-28T13:39:19.321Z,2.58
2022-07-28T13:41:58.368Z,2.40
2022-07-28T13:44:29.892Z,2.72
2022-07-28T13:46:59.233Z,2.58
2022-07-28T13:49:28.229Z,2.47
2022-07-28T13:51:55.650Z,2.77
2022-07-28T13:54:23.587Z,2.67
2022-07-28T13:57:16.084Z,2.78
2022-07-28T13:59:43.877Z,2.42
2022-07-28T14:02:15.400Z,2.38
2022-07-28T14:04:45.933Z,2.22
2022-07-28T14:07:20.811Z,3.08
2022-07-28T14:09:50.583Z,2.72
2022-07-28T14:12:18.684Z,2.33
2022-07-28T14:14:48.165Z,2.45
2022-07-28T14:20:10.905Z,2.40
2022-07-28T14:22:38.230Z,2.42
2022-07-28T14:25:05.804Z,2.30
2022-07-28T14:27:52.306Z,2.53
2022-07-28T14:30:20.921Z,2.92
2022-07-28T14:32:49.034Z,2.45
2022-07-28T14:35:16.628Z,2.33
2022-07-28T14:38:35.084Z,2.30
2022-07-28T14:40:31.985Z,2.50
2022-07-28T14:42:59.932Z,2.55
2022-07-28T14:45:28.796Z,2.80
2022-07-28T14:47:56.031Z,2.22
2022-07-28T14:50:23.948Z,2.33
2022-07-28T14:52:51.304Z,2.17
2022-07-28T14:55:18.832Z,2.30
2022-07-28T14:57:48.825Z,2.28
2022-07-28T15:00:20.154Z,2.30
2022-07-28T15:02:47.764Z,2.60
2022-07-28T15:05:15.113Z,2.35
2022-07-28T15:07:42.470Z,2.00
2022-07-28T15:10:10.679Z,2.55
2022-07-28T15:12:37.912Z,2.65
2022-07-28T15:15:05.878Z,2.13
2022-07-28T15:17:33.571Z,2.47
2022-07-28T15:20:00.686Z,2.30
2022-07-28T15:22:27.752Z,2.38
2022-07-28T15:24:54.761Z,2.20
2022-07-28T15:27:21.838Z,2.33
2022-07-28T15:29:52.172Z,2.33
2022-07-28T15:32:26.313Z,2.92
2022-07-28T15:34:55.842Z,2.45
2022-07-28T15:37:23.207Z,2.58
2022-07-28T15:39:50.464Z,2.83
2022-07-28T15:42:17.571Z,2.65
2022-07-28T15:44:44.599Z,2.42
2022-07-28T15:47:11.624Z,2.35
2022-07-28T15:49:38.686Z,2.40
2022-07-28T15:52:06.038Z,2.22
2022-07-28T15:54:33.039Z,2.50
2022-07-28T15:56:59.991Z,2.53
2022-07-28T15:59:48.671Z,2.60
2022-07-28T16:02:17.495Z,3.00
2022-07-28T16:04:51.549Z,2.88
2022-07-28T16:07:24.717Z,2.47
2022-07-28T16:09:55.416Z,2.65
2022-07-28T16:12:25.281Z,2.90
2022-07-28T16:14:53.964Z,2.53
2022-07-28T16:17:22.939Z,2.53
2022-07-28T16:19:51.226Z,2.50
2022-07-28T16:22:19.975Z,2.58
2022-07-28T16:24:47.357Z,2.72
2022-07-28T16:27:14.804Z,2.47
2022-07-28T16:29:42.621Z,2.83
2022-07-28T16:32:10.095Z,2.55
2022-07-28T16:34:37.334Z,2.67
2022-07-28T16:37:05.043Z,2.70
2022-07-28T16:39:34.336Z,2.50
2022-07-28T16:42:01.760Z,2.97
2022-07-28T16:44:29.320Z,2.60
2022-07-28T16:46:56.937Z,2.42
2022-07-28T16:49:24.605Z,2.67
2022-07-28T16:51:51.721Z,2.50
2022-07-28T16:54:19.320Z,2.58
2022-07-28T16:56:48.185Z,2.72
2022-07-28T16:59:15.178Z,2.28
2022-07-28T17:01:46.184Z,2.72
2022-07-28T17:04:15.618Z,2.30
2022-07-28T17:09:10.783Z,2.50
2022-07-28T17:11:38.027Z,2.95
2022-07-28T17:14:05.026Z,2.33
2022-07-28T17:16:32.250Z,2.97
2022-07-28T17:18:59.608Z,2.83
2022-07-28T17:21:27.034Z,2.70
2022-07-28T17:23:54.146Z,2.53
2022-07-28T17:29:09.702Z,2.72
2022-07-28T17:31:38.419Z,2.60
2022-07-28T17:34:05.754Z,2.50
2022-07-28T17:36:35.283Z,2.53
2022-07-28T17:39:02.597Z,3.10
2022-07-28T17:41:30.751Z,2.30
2022-07-28T17:43:57.816Z,2.60
2022-07-28T17:46:26.479Z,2.75
2022-07-28T17:48:54.133Z,2.75
2022-07-28T17:51:21.566Z,2.90
2022-07-28T17:53:48.894Z,2.45
2022-07-28T17:56:17.494Z,3.47
2022-07-28T17:58:45.881Z,2.88
2022-07-28T18:01:15.269Z,2.97
2022-07-28T18:06:35.904Z,2.47
2022-07-28T18:09:07.847Z,2.92
2022-07-28T18:11:55.220Z,2.67
2022-07-28T18:14:27.166Z,2.60
2022-07-28T18:16:54.359Z,2.65
2022-07-28T18:19:21.456Z,2.78
2022-07-28T18:21:48.755Z,3.10
2022-07-28T18:24:16.209Z,2.75
2022-07-28T18:26:43.795Z,2.63
2022-07-28T18:29:10.819Z,3.00
2022-07-28T18:31:43.896Z,3.35
2022-07-28T18:34:14.257Z,2.83
2022-07-28T18:36:41.622Z,2.70
2022-07-28T18:39:08.681Z,2.70
2022-07-28T18:41:47.135Z,2.63
2022-07-28T18:44:17.448Z,2.50
2022-07-28T18:46:45.656Z,2.97
2022-07-28T18:49:12.950Z,2.95
2022-07-28T18:51:40.135Z,2.42
2022-07-28T18:54:13.395Z,2.72
2022-07-28T18:56:40.601Z,3.08
2022-07-28T18:59:07.549Z,2.47
2022-07-28T19:01:34.702Z,2.72
2022-07-28T19:04:01.869Z,2.95
2022-07-28T19:06:29.382Z,2.58
2022-07-28T19:08:56.723Z,2.78
2022-07-28T19:11:23.703Z,2.90
2022-07-28T19:13:50.866Z,3.00
2022-07-28T19:16:19.377Z,3.38
2022-07-28T19:18:46.449Z,2.72
2022-07-28T19:21:13.819Z,2.90
2022-07-28T19:23:40.921Z,2.78
2022-07-28T19:26:11.306Z,2.80
2022-07-28T19:28:38.423Z,2.58
2022-07-28T19:31:10.588Z,2.95
2022-07-28T19:33:42.817Z,2.90
2022-07-28T19:36:13.792Z,3.22
2022-07-28T19:38:52.697Z,2.70
2022-07-28T19:41:22.629Z,3.28
2022-07-28T19:43:49.811Z,2.78
2022-07-28T19:46:18.815Z,3.13
2022-07-28T19:48:45.914Z,2.90
2022-07-28T19:51:12.959Z,3.05
2022-07-28T19:53:40.094Z,2.88
2022-07-28T19:56:09.215Z,3.13
2022-07-28T19:58:36.948Z,2.75
2022-07-28T20:01:05.638Z,2.53
2022-07-28T20:04:03.112Z,2.70
2022-07-28T20:06:25.009Z,2.90
2022-07-28T20:08:53.941Z,2.65
2022-07-28T20:11:21.324Z,2.88
2022-07-28T20:13:49.430Z,2.67
2022-07-28T20:16:17.681Z,2.20
2022-07-28T20:18:44.820Z,2.60
2022-07-28T20:21:11.974Z,2.28
2022-07-28T20:23:40.848Z,2.60
2022-07-28T20:26:10.088Z,2.58
2022-07-28T20:28:37.869Z,2.28
2022-07-28T20:31:06.187Z,2.30
2022-07-28T20:33:33.274Z,2.45
2022-07-28T20:36:00.258Z,2.20
2022-07-28T20:38:27.451Z,2.53
2022-07-28T20:40:54.506Z,2.33
2022-07-28T20:43:21.568Z,2.55
2022-07-28T20:45:48.637Z,2.63
2022-07-28T20:48:16.260Z,2.42
2022-07-28T20:50:43.311Z,2.92
2022-07-28T20:53:10.654Z,2.60
2022-07-28T20:55:37.907Z,2.60
2022-07-28T20:58:06.117Z,2.80
2022-07-28T21:00:33.376Z,2.70
2022-07-28T21:03:00.524Z,2.00
2022-07-28T21:05:35.475Z,2.55
2022-07-28T21:08:06.252Z,1.73
2022-07-28T21:10:36.862Z,2.85
2022-07-28T21:13:03.965Z,2.42
2022-07-28T21:15:31.275Z,2.95
2022-07-28T21:17:59.271Z,2.70
2022-07-28T21:20:26.471Z,2.58
2022-07-28T21:22:53.736Z,2.67
2022-07-28T21:25:21.436Z,2.90
2022-07-28T21:28:07.477Z,3.05
2022-07-28T21:30:34.532Z,2.53
2022-07-28T21:33:01.543Z,2.38
2022-07-28T21:35:29.467Z,2.50
2022-07-28T21:37:56.520Z,2.50
2022-07-28T21:40:24.107Z,2.60
2022-07-28T21:42:52.002Z,2.40
2022-07-28T21:45:19.366Z,2.25
2022-07-28T21:47:46.359Z,2.10
2022-07-28T21:50:14.061Z,2.65
2022-07-28T21:52:41.210Z,2.20
2022-07-28T21:55:10.082Z,2.60
2022-07-28T21:57:37.159Z,3.00
2022-07-28T22:00:09.129Z,2.25
2022-07-28T22:02:36.649Z,2.20
2022-07-28T22:05:04.754Z,2.90
2022-07-28T22:07:32.103Z,2.20
2022-07-28T22:09:59.072Z,2.15
2022-07-28T22:12:26.059Z,2.45
2022-07-28T22:14:53.018Z,2.53
2022-07-28T22:17:19.982Z,2.85
2022-07-28T22:19:47.002Z,2.47
2022-07-28T22:22:14.072Z,1.95
2022-07-28T22:24:41.011Z,2.05
2022-07-28T22:27:08.002Z,2.30
2022-07-28T22:29:34.978Z,2.22
2022-07-28T22:32:02.143Z,2.53
2022-07-28T22:34:29.718Z,2.13
2022-07-28T22:36:56.857Z,2.33
2022-07-28T22:39:24.321Z,2.15
2022-07-28T22:41:51.251Z,2.58
2022-07-28T22:44:18.696Z,2.80
2022-07-28T22:46:46.649Z,2.25
2022-07-28T22:49:13.788Z,2.50
2022-07-28T22:51:40.908Z,2.40
2022-07-28T22:54:16.111Z,2.15
2022-07-28T22:56:43.667Z,2.28
2022-07-28T22:59:11.284Z,2.50
2022-07-28T23:01:41.436Z,2.15
2022-07-28T23:04:08.393Z,2.28
2022-07-28T23:06:35.594Z,2.50
2022-07-28T23:09:02.796Z,2.45
2022-07-28T23:11:29.789Z,3.10
2022-07-28T23:13:56.769Z,2.35
2022-07-28T23:16:23.838Z,2.72
2022-07-28T23:18:50.890Z,2.65
2022-07-28T23:21:17.870Z,2.83
2022-07-28T23:23:44.846Z,3.05
2022-07-28T23:26:12.294Z,3.10
2022-07-28T23:28:39.297Z,3.10
2022-07-28T23:31:06.456Z,3.45
2022-07-28T23:33:56.405Z,3.42
2022-07-28T23:36:26.808Z,3.97
2022-07-28T23:38:59.170Z,3.67
2022-07-28T23:41:27.121Z,3.30
2022-07-28T23:43:54.578Z,3.40
2022-07-28T23:46:21.806Z,3.38
2022-07-28T23:48:49.537Z,3.70
2022-07-28T23:51:16.598Z,3.05
2022-07-28T23:53:44.917Z,2.60
2022-07-28T23:56:13.502Z,2.90
2022-07-28T23:58:41.089Z,3.20
